Time;durP1;ratioP1;P1;durP2;ratioP2;P2;SDS_P1;SDS_P2;PMS_P1;PMS_P2;Temp;Humidity;BMP_temperature;BMP_pressure;BME280_temperature;BME280_humidity;BME280_pressure;Samples;Min_cycle;Max_cycle;Signal;HPM_P1;HPM_P2
2022/06/01 00:00:40;;;;;;;6.13;4.43;;;;;;;19.75;40.27;93234.84;4974327;28;20105;-89
2022/06/01 00:03:06;;;;;;;6.25;4.50;;;;;;;19.73;40.91;93235.38;4989140;28;20040;-88
2022/06/01 00:05:31;;;;;;;5.70;4.10;;;;;;;19.74;40.60;93227.88;5028967;28;20246;-89
2022/06/01 00:07:57;;;;;;;5.03;4.00;;;;;;;19.72;40.10;93225.66;5011719;28;20091;-89
2022/06/01 00:10:22;;;;;;;6.22;4.30;;;;;;;19.73;40.79;93227.13;5014321;28;20045;-89
2022/06/01 00:12:47;;;;;;;6.63;3.90;;;;;;;19.72;40.24;93211.94;4994555;28;20045;-88
2022/06/01 00:15:14;;;;;;;4.57;3.95;;;;;;;19.72;40.92;93213.94;4994744;28;20037;-88
2022/06/01 00:17:39;;;;;;;7.20;4.20;;;;;;;19.72;40.73;93214.69;5002655;28;20045;-89
2022/06/01 00:20:05;;;;;;;4.85;3.97;;;;;;;19.71;40.46;93215.94;4994815;28;20686;-90
2022/06/01 00:22:31;;;;;;;5.60;3.97;;;;;;;19.72;40.86;93216.69;5011414;28;20393;-88
2022/06/01 00:24:57;;;;;;;6.97;4.57;;;;;;;19.74;40.63;93211.41;4993900;28;20030;-88
2022/06/01 00:27:23;;;;;;;6.18;3.65;;;;;;;19.72;40.70;93222.16;4994335;28;20111;-90
2022/06/01 00:29:48;;;;;;;5.50;4.10;;;;;;;19.72;40.64;93222.91;5027173;28;20034;-90
2022/06/01 00:32:14;;;;;;;6.75;3.70;;;;;;;19.71;40.54;93218.69;4994740;28;20113;-89
2022/06/01 00:34:40;;;;;;;6.13;4.10;;;;;;;19.71;40.29;93215.22;4994847;28;20041;-89
2022/06/01 00:37:05;;;;;;;5.53;3.80;;;;;;;19.73;40.91;93215.41;5002878;28;20658;-88
2022/06/01 00:39:31;;;;;;;5.25;3.85;;;;;;;19.70;40.95;93217.22;5014300;28;20516;-89
2022/06/01 00:42:11;;;;;;;6.03;3.90;;;;;;;19.71;40.65;93218.69;4994346;28;20040;-89
2022/06/01 00:44:36;;;;;;;5.57;4.15;;;;;;;19.72;41.13;93217.44;5010433;28;20107;-89
2022/06/01 00:47:02;;;;;;;6.25;4.20;;;;;;;19.70;41.06;93221.97;4994333;28;21049;-88
2022/06/01 00:49:29;;;;;;;5.70;3.60;;;;;;;19.71;41.01;93207.72;5010800;28;20474;-89
2022/06/01 00:51:54;;;;;;;4.75;3.80;;;;;;;19.72;40.32;93211.19;5010273;28;20101;-89
2022/06/01 00:54:19;;;;;;;6.78;3.97;;;;;;;19.72;40.52;93217.44;5016391;28;20033;-88
2022/06/01 00:56:47;;;;;;;4.88;3.80;;;;;;;19.69;40.66;93215.75;5014003;28;20040;-90
2022/06/01 00:59:15;;;;;;;5.78;3.58;;;;;;;19.69;40.82;93223.25;5013465;28;20112;-88
2022/06/01 01:01:41;;;;;;;7.90;4.13;;;;;;;19.69;40.58;93215.75;5029362;28;20041;-88
2022/06/01 01:04:06;;;;;;;6.28;4.30;;;;;;;19.70;40.71;93222.69;5012920;28;20094;-89
2022/06/01 01:06:34;;;;;;;5.30;4.13;;;;;;;19.71;41.26;93221.44;5013863;28;20033;-89
2022/06/01 01:08:59;;;;;;;4.07;3.67;;;;;;;19.69;41.19;93228.72;4997685;28;20033;-89
2022/06/01 01:11:28;;;;;;;5.18;3.97;;;;;;;19.68;40.88;93217.03;5013259;28;20076;-89
2022/06/01 01:13:53;;;;;;;5.28;3.70;;;;;;;19.70;40.75;93228.19;5013476;28;20037;-90
2022/06/01 01:16:20;;;;;;;6.20;3.80;;;;;;;19.68;40.76;93228.00;5009306;28;20499;-89
2022/06/01 01:18:46;;;;;;;5.45;4.15;;;;;;;19.69;40.50;93228.72;5002549;28;20357;-88
2022/06/01 01:21:34;;;;;;;6.78;4.70;;;;;;;19.69;40.58;93220.50;4996168;28;20108;-88
2022/06/01 01:24:22;;;;;;;5.40;4.05;;;;;;;19.69;40.52;93212.28;5029717;28;20037;-88
2022/06/01 01:26:48;;;;;;;4.15;3.42;;;;;;;19.69;41.22;93207.53;5009143;28;20049;-89
2022/06/01 01:29:14;;;;;;;4.72;3.80;;;;;;;19.69;40.82;93215.00;4993627;28;20044;-89
2022/06/01 01:31:40;;;;;;;5.00;3.63;;;;;;;19.69;40.81;93223.25;4997100;28;20037;-89
2022/06/01 01:34:05;;;;;;;5.40;3.42;;;;;;;19.65;40.67;93218.06;5012524;28;20078;-88
2022/06/01 01:36:34;;;;;;;5.28;3.63;;;;;;;19.67;40.99;93212.06;5012315;28;20072;-88
2022/06/01 01:39:07;;;;;;;5.65;4.07;;;;;;;19.68;40.77;93224.50;4996221;28;20036;-88
2022/06/01 01:41:42;;;;;;;4.90;3.45;;;;;;;19.66;40.57;93222.28;5029667;28;20045;-90
2022/06/01 01:44:21;;;;;;;3.97;3.40;;;;;;;19.67;40.85;93221.03;5011684;28;20495;-89
2022/06/01 01:46:47;;;;;;;5.70;3.83;;;;;;;19.66;40.63;93225.03;5013848;28;20471;-88
2022/06/01 01:49:23;;;;;;;5.20;3.88;;;;;;;19.66;40.53;93216.81;5029553;28;20044;-89
2022/06/01 01:51:52;;;;;;;5.80;3.33;;;;;;;19.66;40.80;93216.81;5012417;28;20506;-89
2022/06/01 01:54:29;;;;;;;6.72;3.42;;;;;;;19.67;40.75;93225.78;5012479;28;20510;-89
2022/06/01 01:57:22;;;;;;;5.18;3.80;;;;;;;19.66;40.82;93222.28;4993277;28;20043;-89
2022/06/01 01:59:54;;;;;;;5.90;3.85;;;;;;;19.65;41.40;93229.03;5013376;28;20262;-89
2022/06/01 02:02:30;;;;;;;5.07;3.30;;;;;;;19.66;40.61;93225.03;5046503;28;20040;-89
2022/06/01 02:07:46;;;;;;;5.05;3.30;;;;;;;19.66;40.72;93221.53;5025876;28;20130;-91
2022/06/01 02:12:56;;;;;;;4.70;3.67;;;;;;;19.62;40.99;93221.09;5032277;28;20047;-89
2022/06/01 02:15:34;;;;;;;5.40;3.75;;;;;;;19.65;40.98;93222.81;5011858;28;20041;-89
2022/06/01 02:18:05;;;;;;;4.10;3.38;;;;;;;19.65;40.89;93211.84;5009640;28;20372;-88
2022/06/01 02:20:41;;;;;;;4.47;3.67;;;;;;;19.66;40.71;93207.84;4992473;28;20444;-88
2022/06/01 02:23:07;;;;;;;5.28;3.80;;;;;;;19.65;41.04;93209.09;5009248;28;20073;-89
2022/06/01 02:25:33;;;;;;;4.68;3.60;;;;;;;19.65;40.92;93209.84;5009154;28;20095;-88
2022/06/01 02:27:59;;;;;;;4.10;3.38;;;;;;;19.66;40.89;93213.31;4992804;28;20037;-89
2022/06/01 02:30:27;;;;;;;4.25;3.42;;;;;;;19.64;40.88;93200.13;5008486;28;20041;-89
2022/06/01 02:32:54;;;;;;;4.03;3.45;;;;;;;19.64;40.98;93205.63;4993395;28;20045;-90
2022/06/01 02:35:19;;;;;;;4.35;3.85;;;;;;;19.65;41.13;93204.34;4992180;28;20126;-89
2022/06/01 02:37:46;;;;;;;7.68;3.38;;;;;;;19.64;40.99;93199.38;4993087;28;20034;-88
2022/06/01 02:40:14;;;;;;;3.80;3.30;;;;;;;19.62;41.31;93199.91;4993132;28;20098;-91
2022/06/01 02:42:44;;;;;;;4.53;3.55;;;;;;;19.63;41.52;93195.91;5044443;28;20044;-90
2022/06/01 02:45:09;;;;;;;4.28;3.35;;;;;;;19.64;40.99;93205.63;5011609;28;20127;-89
2022/06/01 02:47:38;;;;;;;4.53;2.92;;;;;;;19.64;41.36;93200.13;5028995;28;20051;-91
2022/06/01 02:50:06;;;;;;;4.15;3.20;;;;;;;19.63;41.13;93208.88;5016928;28;20090;-89
2022/06/01 02:52:31;;;;;;;4.03;3.33;;;;;;;19.63;41.58;93204.13;5016975;28;20064;-90
2022/06/01 02:54:57;;;;;;;5.03;3.22;;;;;;;19.65;41.02;93207.09;5012044;28;20542;-88
2022/06/01 02:57:23;;;;;;;4.03;3.08;;;;;;;19.63;40.85;93203.38;5012208;28;20120;-88
2022/06/01 02:59:49;;;;;;;7.53;3.85;;;;;;;19.62;41.04;93201.91;5034080;28;20049;-90
2022/06/01 03:02:14;;;;;;;3.60;2.92;;;;;;;19.62;41.21;93205.38;5012213;28;20105;-88
2022/06/01 03:04:41;;;;;;;4.38;3.05;;;;;;;19.64;40.92;93208.34;5012294;28;20045;-88
2022/06/01 03:07:06;;;;;;;4.05;3.10;;;;;;;19.63;41.57;93206.88;5014807;28;20033;-88
2022/06/01 03:09:31;;;;;;;4.40;3.42;;;;;;;19.64;41.22;93204.88;5015538;28;20045;-90
2022/06/01 03:11:57;;;;;;;3.70;3.25;;;;;;;19.61;41.12;93201.16;5015858;28;20044;-89
2022/06/01 03:14:22;;;;;;;3.50;2.63;;;;;;;19.62;40.97;93207.41;5015099;28;20045;-88
2022/06/01 03:16:48;;;;;;;3.33;2.72;;;;;;;19.61;41.68;93203.91;5015862;28;20044;-88
2022/06/01 03:19:13;;;;;;;3.33;3.03;;;;;;;19.61;41.20;93209.41;5014552;28;20037;-88
2022/06/01 03:21:40;;;;;;;4.10;3.10;;;;;;;19.62;41.25;93215.63;5015771;28;20037;-88
2022/06/01 03:24:06;;;;;;;3.35;3.05;;;;;;;19.61;41.21;93225.09;5015816;28;20559;-88
2022/06/01 03:26:31;;;;;;;4.65;3.80;;;;;;;19.63;41.26;93223.31;5015290;28;20306;-88
2022/06/01 03:28:56;;;;;;;4.97;2.78;;;;;;;19.60;41.20;93224.38;5015714;28;20589;-88
2022/06/01 03:31:22;;;;;;;3.47;3.17;;;;;;;19.61;41.12;93217.63;5014840;28;20044;-89
2022/06/01 03:33:47;;;;;;;4.18;3.40;;;;;;;19.61;41.60;93227.84;5015628;28;20033;-90
2022/06/01 03:36:14;;;;;;;3.55;3.20;;;;;;;19.61;41.33;93227.84;4998304;28;20515;-88
2022/06/01 03:38:39;;;;;;;3.53;3.05;;;;;;;19.63;41.67;93230.81;5015159;28;20407;-88
2022/06/01 03:41:05;;;;;;;4.35;3.10;;;;;;;19.61;40.95;93228.59;5014335;28;20037;-89
2022/06/01 03:43:30;;;;;;;4.80;3.15;;;;;;;19.64;41.68;93240.53;5015366;28;20119;-88
2022/06/01 03:45:56;;;;;;;4.47;3.20;;;;;;;19.63;41.87;93242.53;5015632;28;20052;-90
2022/06/01 03:48:32;;;;;;;3.30;2.88;;;;;;;19.64;41.45;93246.00;4995744;28;20049;-88
2022/06/01 03:50:57;;;;;;;4.88;3.50;;;;;;;19.66;41.16;93244.22;4995824;28;20167;-89
2022/06/01 03:53:24;;;;;;;9.40;3.58;;;;;;;19.69;41.41;93253.41;5011900;28;20136;-89
2022/06/01 03:55:50;;;;;;;4.00;3.28;;;;;;;19.69;41.49;93247.94;5031648;28;20120;-88
2022/06/01 03:58:17;;;;;;;4.32;2.83;;;;;;;19.71;41.12;93261.81;5026336;28;20148;-89
2022/06/01 04:00:43;;;;;;;3.72;2.97;;;;;;;19.70;41.32;93252.88;4980760;28;20115;-90
2022/06/01 04:03:08;;;;;;;6.93;2.95;;;;;;;19.71;40.88;93257.09;4981307;28;20037;-89
2022/06/01 04:05:34;;;;;;;4.55;3.08;;;;;;;19.69;41.81;93267.13;4980669;28;20041;-90
2022/06/01 04:07:59;;;;;;;8.75;4.30;;;;;;;19.60;43.78;93265.50;4998611;28;20038;-90
2022/06/01 04:10:25;;;;;;;11.80;4.97;;;;;;;19.59;45.31;93264.03;4997552;28;20064;-89
2022/06/01 04:12:50;;;;;;;10.68;4.82;;;;;;;19.57;46.74;93268.53;4998625;28;20025;-91
2022/06/01 04:15:16;;;;;;;9.02;5.25;;;;;;;19.54;47.58;93272.31;4971662;28;20092;-90
2022/06/01 04:17:41;;;;;;;5.38;4.82;;;;;;;19.54;47.59;93280.53;4979947;28;20044;-88
2022/06/01 04:20:08;;;;;;;5.43;4.65;;;;;;;19.55;47.59;93274.53;5010788;28;20045;-90
2022/06/01 04:22:33;;;;;;;17.05;6.82;;;;;;;19.53;47.98;93274.31;5016515;28;20096;-89
2022/06/01 04:25:00;;;;;;;10.27;8.75;;;;;;;19.47;47.88;93281.88;4997028;28;20030;-89
2022/06/01 04:27:25;;;;;;;23.90;14.90;;;;;;;19.48;48.67;93286.84;5016983;28;20053;-88
2022/06/01 04:29:51;;;;;;;16.52;11.00;;;;;;;19.50;49.12;93278.09;5048617;23;20049;-89
2022/06/01 04:32:24;;;;;;;28.10;17.70;;;;;;;19.45;49.01;93276.19;5007783;28;20497;-89
2022/06/01 04:34:49;;;;;;;22.83;14.75;;;;;;;19.45;49.25;93281.66;5004752;28;20427;-89
2022/06/01 04:37:15;;;;;;;24.90;15.35;;;;;;;19.51;47.95;93287.81;5002548;28;20056;-87
2022/06/01 04:39:42;;;;;;;50.92;39.03;;;;;;;19.50;48.52;93283.59;5015358;28;20149;-90
2022/06/01 04:42:08;;;;;;;17.85;11.73;;;;;;;19.58;47.62;93298.19;5007800;28;20048;-86
2022/06/01 04:44:34;;;;;;;13.35;10.38;;;;;;;19.62;46.94;93292.41;5029090;28;20091;-90
2022/06/01 04:46:59;;;;;;;44.13;15.30;;;;;;;19.59;47.13;93294.19;5001480;28;20045;-92
2022/06/01 04:49:25;;;;;;;100.38;74.95;;;;;;;19.63;45.58;93286.41;5008549;28;20046;-92
2022/06/01 04:51:51;;;;;;;30.15;20.08;;;;;;;19.65;46.57;93288.63;5005817;28;20034;-90
2022/06/01 04:54:17;;;;;;;28.13;12.63;;;;;;;19.69;45.71;93289.06;4987007;28;20045;-92
2022/06/01 04:56:43;;;;;;;33.28;14.07;;;;;;;19.62;45.68;93284.91;4989052;28;20045;-91
2022/06/01 04:59:10;;;;;;;36.28;15.02;;;;;;;19.62;45.22;93281.44;4993656;28;20033;-92
2022/06/01 05:01:35;;;;;;;81.00;19.67;;;;;;;19.61;46.37;93283.44;5010839;28;20044;-90
2022/06/01 05:04:01;;;;;;;62.85;15.90;;;;;;;19.58;48.23;93286.47;4994463;28;20053;-90
2022/06/01 05:06:26;;;;;;;62.28;15.95;;;;;;;19.51;48.90;93285.81;5010923;28;20057;-93
2022/06/01 05:08:52;;;;;;;49.55;14.93;;;;;;;19.51;49.05;93296.03;5022319;28;20499;-91
2022/06/01 05:11:19;;;;;;;83.13;18.52;;;;;;;19.47;49.42;93290.84;4992254;28;20037;-90
2022/06/01 05:13:45;;;;;;;102.03;22.63;;;;;;;19.46;49.84;93292.09;4999741;28;20416;-89
2022/06/01 05:16:11;;;;;;;69.03;15.68;;;;;;;19.48;49.91;93305.28;4988568;28;20158;-91
2022/06/01 05:18:38;;;;;;;81.22;17.50;;;;;;;19.47;50.23;93303.81;4983479;28;20045;-91
2022/06/01 05:21:04;;;;;;;102.45;21.58;;;;;;;19.43;49.96;93298.63;4997849;28;20483;-92
2022/06/01 05:23:30;;;;;;;89.05;19.80;;;;;;;19.45;50.19;93303.59;4995824;28;20143;-92
2022/06/01 05:25:55;;;;;;;105.78;21.05;;;;;;;19.37;50.28;93308.19;5026478;28;20037;-90
2022/06/01 05:28:23;;;;;;;130.13;27.67;;;;;;;19.37;50.44;93302.69;4991993;28;20056;-91
2022/06/01 05:30:48;;;;;;;181.43;32.55;;;;;;;19.36;50.81;93303.97;5029680;28;20049;-91
2022/06/01 05:33:14;;;;;;;217.77;34.92;;;;;;;19.39;50.81;93309.16;5016178;28;20069;-89
2022/06/01 05:35:39;;;;;;;147.48;26.13;;;;;;;19.33;50.92;93307.72;5004975;28;20051;-91
2022/06/01 05:38:05;;;;;;;84.93;22.08;;;;;;;19.28;51.11;93300.31;5001204;28;20561;-90
2022/06/01 05:40:30;;;;;;;107.53;19.27;;;;;;;19.29;51.06;93307.28;4986386;28;20041;-91
2022/06/01 05:42:59;;;;;;;68.93;20.35;;;;;;;19.25;51.58;93306.88;4998308;28;20044;-91
2022/06/01 05:45:25;;;;;;;86.78;24.08;;;;;;;19.26;51.65;93311.81;5007393;28;20101;-92
2022/06/01 05:47:51;;;;;;;81.30;22.40;;;;;;;19.29;51.39;93310.75;4985709;28;20034;-91
2022/06/01 05:50:16;;;;;;;80.35;19.45;;;;;;;19.27;51.50;93307.78;4997720;28;20042;-92
2022/06/01 05:52:42;;;;;;;41.25;13.65;;;;;;;19.29;51.39;93318.25;4999129;28;20045;-90
2022/06/01 05:55:08;;;;;;;73.10;15.95;;;;;;;19.28;51.46;93328.47;4983764;28;20479;-88
2022/06/01 05:57:34;;;;;;;62.38;19.05;;;;;;;19.28;51.59;93339.44;5022847;28;20049;-89
2022/06/01 06:00:00;;;;;;;82.22;23.48;;;;;;;19.28;51.83;93336.69;4994448;28;20063;-89
2022/06/01 06:02:26;;;;;;;89.32;27.02;;;;;;;19.28;52.10;93325.72;5025723;28;20045;-92
2022/06/01 06:04:51;;;;;;;92.45;23.65;;;;;;;19.29;51.98;93331.94;4979492;28;20051;-91
2022/06/01 06:07:17;;;;;;;67.13;23.55;;;;;;;19.28;52.39;93324.97;4999841;28;20036;-89
2022/06/01 06:09:42;;;;;;;53.50;20.83;;;;;;;19.31;52.04;93332.19;4980276;28;20044;-90
2022/06/01 06:12:08;;;;;;;52.80;20.02;;;;;;;19.33;51.92;93327.66;4986735;28;20037;-89
2022/06/01 06:14:34;;;;;;;45.88;21.23;;;;;;;19.35;51.93;93327.16;4985782;28;20051;-90
2022/06/01 06:17:00;;;;;;;41.58;18.80;;;;;;;19.43;51.31;93337.00;4977661;28;20043;-88
2022/06/01 06:19:26;;;;;;;33.80;16.60;;;;;;;19.45;51.90;93331.75;4970611;28;20042;-91
2022/06/01 06:21:51;;;;;;;35.28;19.08;;;;;;;19.51;51.64;93334.41;4987141;28;20047;-90
2022/06/01 06:24:18;;;;;;;23.27;13.90;;;;;;;19.51;51.48;93323.44;4989296;28;20060;-89
2022/06/01 06:26:45;;;;;;;30.27;14.95;;;;;;;19.57;51.03;93323.38;4992005;28;20041;-91
2022/06/01 06:29:12;;;;;;;21.65;13.85;;;;;;;19.52;51.37;93324.94;4970252;28;20828;-92
2022/06/01 06:31:37;;;;;;;31.80;18.55;;;;;;;19.61;51.27;93330.06;4971591;28;20042;-90
2022/06/01 06:34:03;;;;;;;26.17;15.43;;;;;;;19.56;51.19;93332.88;4990467;28;20052;-92
2022/06/01 06:36:30;;;;;;;23.90;13.82;;;;;;;19.60;51.12;93342.28;4974667;28;20054;-92
2022/06/01 06:38:55;;;;;;;29.75;14.68;;;;;;;19.56;51.55;93332.88;4979797;28;20092;-91
2022/06/01 06:41:24;;;;;;;34.08;13.52;;;;;;;19.56;51.39;93339.09;4975940;28;20041;-90
2022/06/01 06:43:51;;;;;;;34.85;13.82;;;;;;;19.59;50.92;93345.53;5016022;28;20041;-92
2022/06/01 06:46:21;;;;;;;37.80;16.33;;;;;;;19.64;51.01;93341.97;4998622;28;20056;-94
2022/06/01 06:48:51;;;;;;;57.15;19.90;;;;;;;19.68;50.55;93343.16;5027974;28;20041;-93
2022/06/01 06:51:17;;;;;;;51.75;17.92;;;;;;;19.75;50.46;93339.06;5031896;28;20045;-92
2022/06/01 06:53:43;;;;;;;77.32;22.92;;;;;;;19.73;50.62;93336.84;5010754;28;20041;-93
2022/06/01 06:56:08;;;;;;;141.68;38.75;;;;;;;19.73;50.60;93347.81;5023079;28;20084;-88
2022/06/01 06:58:34;;;;;;;187.07;47.80;;;;;;;19.77;50.22;93342.78;5038776;28;20041;-93
2022/06/01 07:00:59;;;;;;;361.52;83.57;;;;;;;19.78;50.38;93344.25;5003885;28;20087;-92
2022/06/01 07:03:25;;;;;;;368.45;80.78;;;;;;;19.81;50.15;93345.97;5016357;28;20045;-90
2022/06/01 07:06:09;;;;;;;277.38;74.15;;;;;;;19.81;50.03;93347.97;5003403;28;20044;-92
2022/06/01 07:08:38;;;;;;;331.08;83.47;;;;;;;19.90;49.89;93327.63;5016932;28;20057;-91
2022/06/01 07:11:05;;;;;;;300.65;71.65;;;;;;;19.93;49.83;93338.28;5013449;28;20041;-91
2022/06/01 07:13:32;;;;;;;304.60;67.53;;;;;;;19.97;49.73;93343.47;5014661;28;20110;-93
2022/06/01 07:16:05;;;;;;;268.13;67.18;;;;;;;19.97;49.50;93340.72;5014859;28;20801;-93
2022/06/01 07:18:30;;;;;;;199.70;55.47;;;;;;;19.95;49.59;93344.00;5031231;28;20075;-91
2022/06/01 07:20:58;;;;;;;189.00;53.78;;;;;;;19.97;49.33;93341.47;5012142;28;20519;-92
2022/06/01 07:23:25;;;;;;;177.35;52.47;;;;;;;20.03;48.98;93338.66;5015528;28;20125;-90
2022/06/01 07:25:50;;;;;;;191.25;56.60;;;;;;;20.04;49.28;93342.88;5015978;28;20037;-92
2022/06/01 07:28:16;;;;;;;187.77;54.08;;;;;;;20.04;49.11;93340.88;5016255;28;20503;-92
2022/06/01 07:30:41;;;;;;;152.48;52.30;;;;;;;20.04;49.17;93340.88;5019414;28;20037;-92
2022/06/01 07:33:07;;;;;;;154.32;49.63;;;;;;;20.09;49.16;93344.78;5021822;28;20437;-93
2022/06/01 07:35:32;;;;;;;139.93;43.75;;;;;;;20.06;49.01;93343.84;5003598;28;20076;-93
2022/06/01 07:43:39;;;;;;;146.07;47.00;;;;;;;20.06;49.02;93354.06;5019486;28;20088;-92
2022/06/01 07:46:04;;;;;;;124.72;47.92;;;;;;;20.05;49.08;93344.34;5037457;28;20029;-93
2022/06/01 07:48:42;;;;;;;136.68;49.67;;;;;;;20.10;49.11;93351.75;4999102;28;20059;-92
2022/06/01 07:51:09;;;;;;;144.48;49.88;;;;;;;20.08;49.01;93354.28;5035046;28;20036;-91
2022/06/01 07:53:36;;;;;;;135.63;49.47;;;;;;;20.08;49.03;93344.06;5010148;28;20037;-91
2022/06/01 07:56:14;;;;;;;126.75;48.38;;;;;;;20.09;49.12;93348.28;5010257;28;20033;-92
2022/06/01 07:58:40;;;;;;;136.00;54.97;;;;;;;20.11;48.67;93353.25;5029425;28;20040;-92
2022/06/01 08:01:08;;;;;;;118.93;51.45;;;;;;;20.14;48.63;93358.41;5026792;28;20037;-92
2022/06/01 08:03:33;;;;;;;124.85;51.45;;;;;;;20.12;49.11;93366.44;5018109;28;20485;-91
2022/06/01 08:05:59;;;;;;;103.90;43.83;;;;;;;20.15;48.89;93357.16;5015014;28;20048;-91
2022/06/01 08:08:24;;;;;;;86.88;39.47;;;;;;;20.10;48.93;93363.47;5020330;28;20033;-93
2022/06/01 08:10:50;;;;;;;106.15;44.40;;;;;;;20.13;48.84;93367.19;5021860;28;20048;-92
2022/06/01 08:13:15;;;;;;;94.95;42.08;;;;;;;20.13;48.97;93365.19;5015315;28;20552;-90
2022/06/01 08:15:46;;;;;;;113.75;52.13;;;;;;;20.15;48.93;93359.88;5012058;28;20050;-91
2022/06/01 08:18:13;;;;;;;164.52;54.70;;;;;;;20.21;48.69;93359.81;4995688;28;20048;-89
2022/06/01 08:20:39;;;;;;;151.70;55.00;;;;;;;20.19;48.68;93365.06;5026078;28;20039;-90
2022/06/01 08:23:06;;;;;;;155.00;55.55;;;;;;;20.23;48.61;93373.00;5037858;28;20446;-92
2022/06/01 08:25:32;;;;;;;157.98;57.78;;;;;;;20.23;48.48;93378.50;5046881;28;20037;-90
2022/06/01 08:27:58;;;;;;;126.40;52.63;;;;;;;20.19;48.64;93376.06;5001491;28;20037;-91
2022/06/01 08:30:25;;;;;;;135.55;53.50;;;;;;;20.22;48.44;93368.78;5018494;28;20198;-90
2022/06/01 08:32:51;;;;;;;125.43;51.63;;;;;;;20.22;48.78;93366.03;5003645;28;20040;-91
2022/06/01 08:35:18;;;;;;;130.38;56.95;;;;;;;20.25;48.51;93371.22;5023790;28;20033;-93
2022/06/01 08:37:46;;;;;;;177.90;77.75;;;;;;;20.23;48.56;93375.75;5018504;28;20059;-89
2022/06/01 08:40:12;;;;;;;212.60;99.53;;;;;;;20.25;48.45;93376.72;5019157;28;20143;-90
2022/06/01 08:42:38;;;;;;;195.10;86.30;;;;;;;20.32;48.31;93381.59;5014697;28;20041;-92
2022/06/01 08:45:06;;;;;;;189.07;93.43;;;;;;;20.32;48.38;93381.59;5001978;28;20041;-90
2022/06/01 08:47:34;;;;;;;200.07;98.15;;;;;;;20.31;48.58;93382.13;4998961;28;20579;-89
2022/06/01 08:50:03;;;;;;;200.50;101.55;;;;;;;20.33;48.47;93379.59;5012665;28;20084;-90
2022/06/01 08:52:29;;;;;;;219.75;117.97;;;;;;;20.31;48.58;93384.88;4998262;28;20045;-88
2022/06/01 08:54:55;;;;;;;269.52;130.25;;;;;;;20.34;48.30;93376.34;4996155;28;20048;-90
2022/06/01 08:57:28;;;;;;;291.60;159.98;;;;;;;20.31;48.54;93388.34;4978915;28;20049;-89
2022/06/01 09:00:05;;;;;;;320.35;161.43;;;;;;;20.37;48.65;93375.28;4991480;28;20120;-90
2022/06/01 09:02:48;;;;;;;261.27;149.18;;;;;;;20.36;48.39;93382.00;5011774;28;20050;-89
2022/06/01 09:05:41;;;;;;;286.90;154.77;;;;;;;20.35;48.32;93377.78;4986046;28;20136;-91
2022/06/01 09:08:20;;;;;;;270.85;158.00;;;;;;;20.40;48.07;93381.72;5035019;28;20131;-88
2022/06/01 09:10:50;;;;;;;301.45;166.40;;;;;;;20.36;48.25;93384.75;5006267;28;20060;-89
2022/06/01 09:13:23;;;;;;;;;;;;;;;20.38;48.15;93379.50;4997705;28;20053;-88
2022/06/01 09:15:52;;;;;;;333.35;180.52;;;;;;;20.40;48.37;93384.47;5013401;28;19921;-91
2022/06/01 09:18:19;;;;;;;315.73;181.13;;;;;;;20.42;48.38;93381.94;4997299;28;20107;-90
2022/06/01 09:23:28;;;;;;;344.17;208.40;;;;;;;20.45;48.30;93378.91;5009647;28;20094;-91
2022/06/01 09:25:55;;;;;;;284.67;184.23;;;;;;;20.44;48.14;93376.69;5001933;28;20060;-92
2022/06/01 09:28:24;;;;;;;301.13;200.43;;;;;;;20.43;48.29;93375.19;5007966;28;20024;-90
2022/06/01 09:31:09;;;;;;;355.13;215.15;;;;;;;20.43;48.11;93386.19;5009826;28;20037;-92
2022/06/01 09:33:37;;;;;;;357.38;228.95;;;;;;;20.43;48.09;93388.94;5002992;28;20458;-92
2022/06/01 09:36:10;;;;;;;369.90;231.27;;;;;;;20.41;48.45;93380.47;5002884;28;20063;-93
2022/06/01 09:38:39;;;;;;;369.02;238.82;;;;;;;20.43;48.22;93383.44;5034470;28;20060;-91
2022/06/01 09:41:11;;;;;;;376.33;249.00;;;;;;;20.45;48.05;93389.16;5035303;28;20037;-93
2022/06/01 09:43:40;;;;;;;356.73;243.45;;;;;;;20.45;48.03;93384.41;5014791;28;20036;-91
2022/06/01 09:46:07;;;;;;;364.85;254.05;;;;;;;20.44;48.14;93382.91;5000328;28;20041;-93
2022/06/01 09:48:40;;;;;;;413.23;278.95;;;;;;;20.44;48.09;93388.41;5004658;28;20036;-93
2022/06/01 09:51:11;;;;;;;385.13;253.77;;;;;;;20.44;48.05;93390.41;5007099;28;20121;-93
2022/06/01 09:53:47;;;;;;;368.73;247.30;;;;;;;20.43;48.19;93391.66;5047757;28;20047;-90
2022/06/01 09:56:17;;;;;;;419.33;262.58;;;;;;;20.45;48.13;93394.63;4999497;28;20041;-91
2022/06/01 10:07:04;;;;;;;383.02;227.20;;;;;;;20.43;48.32;93391.66;5032632;28;20048;-90
2022/06/01 10:09:31;;;;;;;362.27;222.43;;;;;;;20.48;48.16;93396.34;5007624;28;20076;-92
2022/06/01 10:11:56;;;;;;;314.15;210.07;;;;;;;20.42;48.28;93390.94;4992794;28;20104;-92
2022/06/01 10:14:25;;;;;;;770.72;687.08;;;;;;;20.44;48.37;93393.91;5018243;28;20083;-92
2022/06/01 10:16:50;;;;;;;439.05;340.95;;;;;;;20.46;48.17;93391.38;5021072;28;20033;-92
2022/06/01 10:19:18;;;;;;;223.63;145.77;;;;;;;20.49;47.64;93382.09;5042966;28;20068;-92
2022/06/01 10:21:52;;;;;;;166.30;109.35;;;;;;;20.42;47.86;93387.44;5008854;28;20037;-91
2022/06/01 10:24:24;;;;;;;149.57;106.20;;;;;;;20.41;48.13;93389.44;5020806;28;20045;-91
2022/06/01 10:26:58;;;;;;;139.95;95.07;;;;;;;20.40;48.13;93381.72;5009134;28;20036;-93
2022/06/01 10:29:33;;;;;;;131.68;90.00;;;;;;;20.35;48.11;93383.28;5003939;28;20060;-87
2022/06/01 10:32:05;;;;;;;136.38;90.00;;;;;;;20.37;48.22;93385.53;4979418;28;20064;-90
2022/06/01 10:34:50;;;;;;;198.50;157.20;;;;;;;20.41;48.01;93377.72;4996201;28;20037;-93
2022/06/01 10:37:17;;;;;;;147.25;98.80;;;;;;;20.40;47.94;93376.97;4991460;28;20073;-92
2022/06/01 10:39:49;;;;;;;131.10;86.75;;;;;;;20.42;48.31;93390.19;4992007;28;20053;-91
2022/06/01 10:42:19;;;;;;;120.00;83.40;;;;;;;20.44;47.90;93384.91;5001084;28;20041;-92
2022/06/01 10:45:05;;;;;;;119.38;83.55;;;;;;;20.45;48.07;93380.91;5010088;28;20038;-93
2022/06/01 10:47:54;;;;;;;114.13;76.80;;;;;;;20.42;48.09;93379.22;4996766;28;20587;-92
2022/06/01 10:50:25;;;;;;;106.20;75.60;;;;;;;20.44;47.94;93374.69;4995283;28;20065;-90
2022/06/01 10:52:54;;;;;;;;;;;;;;;20.43;47.81;93380.69;5005034;28;20211;-90
2022/06/01 10:55:26;;;;;;;97.55;68.18;;;;;;;20.43;47.73;93370.44;5019929;28;20363;-91
2022/06/01 10:57:56;;;;;;;103.47;69.93;;;;;;;20.45;47.62;93370.66;5004631;28;20123;-91
2022/06/01 11:00:26;;;;;;;116.30;71.83;;;;;;;20.46;47.79;93372.16;5021236;28;20645;-91
2022/06/01 11:03:20;;;;;;;173.23;85.18;;;;;;;20.44;47.85;93368.44;4999929;28;20267;-91
2022/06/01 11:06:04;;;;;;;193.05;89.45;;;;;;;20.47;47.69;93367.41;4999547;28;20052;-91
2022/06/01 11:08:53;;;;;;;279.85;122.28;;;;;;;20.48;47.61;93369.63;5017010;28;20048;-92
2022/06/01 11:11:28;;;;;;;243.52;116.82;;;;;;;20.47;47.81;93370.13;4998768;28;20037;-93
2022/06/01 11:14:12;;;;;;;225.02;116.25;;;;;;;20.44;47.80;93371.19;5044386;28;20492;-92
2022/06/01 11:16:59;;;;;;;224.90;114.93;;;;;;;20.49;47.92;93370.34;4996799;28;20058;-93
2022/06/01 11:19:52;;;;;;;232.82;113.40;;;;;;;20.48;47.70;93369.63;5015771;28;20052;-91
2022/06/01 11:22:39;;;;;;;220.50;117.75;;;;;;;20.52;47.81;93364.56;5012108;28;20128;-92
2022/06/01 11:25:20;;;;;;;273.42;137.48;;;;;;;20.48;47.64;93358.63;5002805;28;20045;-93
2022/06/01 11:27:59;;;;;;;254.60;142.07;;;;;;;20.47;47.44;93365.38;5046005;28;20103;-94
2022/06/01 11:30:27;;;;;;;243.40;123.40;;;;;;;20.50;46.97;93358.84;5011022;28;20045;-92
2022/06/01 11:33:04;;;;;;;335.77;149.70;;;;;;;20.48;46.60;93372.38;5011645;28;20037;-93
2022/06/01 11:35:42;;;;;;;263.70;118.47;;;;;;;20.51;46.12;93365.09;5025217;28;20053;-92
2022/06/01 11:38:10;;;;;;;276.48;123.97;;;;;;;20.50;46.87;93369.09;5015390;28;20091;-92
2022/06/01 11:40:40;;;;;;;293.70;116.72;;;;;;;20.50;45.95;93371.84;5017862;28;20037;-89
2022/06/01 11:43:15;;;;;;;218.47;106.03;;;;;;;20.48;46.21;93361.38;5040980;28;20049;-90
2022/06/01 11:45:48;;;;;;;276.60;109.80;;;;;;;20.51;46.02;93360.34;5009598;28;20041;-88
2022/06/01 11:48:14;;;;;;;224.77;100.10;;;;;;;20.51;45.76;93354.84;5033392;28;20120;-93